Time,TemperatureF,DewpointF,PressureIn,WindDirection,WindDirectionDegrees,WindSpeedMPH,WindSpeedGustMPH,Humidity,HourlyPrecipIn,Conditions,Clouds,dailyrainin,SoftwareType,DateUTC
2013-03-28 00:00:00,28.6,24.1,29.93,NW,315,0.0,0.0,83,0.00,-SN,,0.00,WeatherDisplay:10.37,2013-03-27 23:00:00,
2013-03-28 00:05:00,30.4,25.8,29.93,NW,315,0.0,0.0,83,0.00,,,0.00,WUHU21636XXSP,2013-03-27 23:05:00,
2013-03-28 00:10:00,28.6,24.1,29.93,NW,315,0.0,0.0,83,0.00,-SN,,0.00,WeatherDisplay:10.37,2013-03-27 23:10:00,
2013-03-28 00:15:00,30.0,25.4,29.94,NW,315,0.0,0.0,83,0.00,,,0.00,WUHU21636XXSP,2013-03-27 23:15:00,
2013-03-28 00:20:00,28.2,23.7,29.93,NW,315,0.0,0.0,83,0.00,BKN,,0.00,WeatherDisplay:10.37,2013-03-27 23:20:00,
2013-03-28 00:25:00,30.0,25.4,29.93,NW,315,0.0,0.0,83,0.00,,,0.00,WUHU21636XXSP,2013-03-27 23:25:00,
2013-03-28 00:30:00,28.2,23.7,29.93,NW,315,0.0,0.0,83,0.00,BKN,,0.00,WeatherDisplay:10.37,2013-03-27 23:30:00,
2013-03-28 00:35:00,29.8,25.3,29.93,NW,315,0.0,0.0,83,0.00,,,0.00,WUHU21636XXSP,2013-03-27 23:35:00,
2013-03-28 00:40:00,28.0,23.5,29.93,NW,315,0.0,0.0,83,0.00,BKN,,0.00,WeatherDisplay:10.37,2013-03-27 23:40:00,
2013-03-28 00:45:00,29.7,25.2,29.93,NW,315,0.0,0.0,83,0.00,,,0.00,WUHU21636XXSP,2013-03-27 23:45:00,
2013-03-28 00:50:00,27.7,23.2,29.92,NW,315,0.0,0.0,83,0.00,BKN,,0.00,WeatherDisplay:10.37,2013-03-27 23:50:00,
2013-03-28 00:55:00,29.5,25.0,29.93,NW,315,0.0,0.0,83,0.00,,,0.00,WUHU21636XXSP,2013-03-27 23:55:00,
2013-03-28 01:00:00,27.5,23.0,29.92,NW,315,0.0,0.0,83,0.00,BKN,,0.00,WeatherDisplay:10.37,2013-03-28 00:00:00,
2013-03-28 01:05:00,29.3,25.0,29.93,NW,315,0.0,0.0,84,0.00,,,0.00,WUHU21636XXSP,2013-03-28 00:05:00,
2013-03-28 01:10:00,27.3,23.1,29.92,NW,315,0.0,0.0,84,0.00,OVC,,0.00,WeatherDisplay:10.37,2013-03-28 00:10:00,
2013-03-28 01:15:00,29.1,24.8,29.93,NW,315,0.0,0.0,84,0.00,,,0.00,WUHU21636XXSP,2013-03-28 00:15:00,
2013-03-28 01:20:00,27.1,22.9,29.92,NW,315,0.0,0.0,84,0.00,OVC,,0.00,WeatherDisplay:10.37,2013-03-28 00:20:00,
2013-03-28 01:25:00,28.9,24.7,29.93,NW,315,0.0,0.0,84,0.00,,,0.00,WUHU21636XXSP,2013-03-28 00:25:00,
2013-03-28 01:30:00,27.1,22.9,29.92,NW,315,0.0,0.0,84,0.00,OVC,,0.00,WeatherDisplay:10.37,2013-03-28 00:30:00,
2013-03-28 01:35:00,29.1,24.8,29.93,NW,315,0.0,0.0,84,0.00,,,0.00,WUHU21636XXSP,2013-03-28 00:35:00,
2013-03-28 01:40:00,27.3,23.1,29.92,NW,315,0.0,0.0,84,0.00,OVC,,0.00,WeatherDisplay:10.37,2013-03-28 00:40:00,
2013-03-28 01:45:00,29.3,25.3,29.93,NW,315,0.0,0.0,85,0.00,,,0.00,WUHU21636XXSP,2013-03-28 00:45:00,
2013-03-28 01:50:00,27.5,23.3,29.92,NW,315,0.0,0.0,84,0.00,OVC,,0.00,WeatherDisplay:10.37,2013-03-28 00:50:00,
2013-03-28 01:55:00,29.3,25.0,29.93,ESE,113,0.0,0.0,84,0.00,,,0.00,WUHU21636XXSP,2013-03-28 00:55:00,
2013-03-28 02:00:00,29.5,25.2,29.93,ESE,113,0.0,0.0,84,0.00,,,0.00,WUHU21636XXSP,2013-03-28 01:00:00,
2013-03-28 02:01:00,27.7,23.5,29.92,NNE,33,0.0,0.0,84,0.00,OVC,,0.00,WeatherDisplay:10.37,2013-03-28 01:01:00,
2013-03-28 02:05:00,29.5,25.2,29.93,ESE,113,0.0,0.0,84,0.00,,,0.00,WUHU21636XXSP,2013-03-28 01:05:00,
2013-03-28 02:10:00,27.7,23.2,29.92,ESE,112,0.0,0.0,83,0.00,OVC,,0.00,WeatherDisplay:10.37,2013-03-28 01:10:00,
2013-03-28 02:15:00,29.5,25.0,29.93,WNW,293,0.0,0.0,83,0.00,,,0.00,WUHU21636XXSP,2013-03-28 01:15:00,
2013-03-28 02:20:00,27.7,23.2,29.91,WNW,292,0.0,0.0,83,0.00,OVC,,0.00,WeatherDisplay:10.37,2013-03-28 01:20:00,
2013-03-28 02:25:00,29.7,25.2,29.92,WNW,293,1.3,1.3,83,0.00,,,0.00,WUHU21636XXSP,2013-03-28 01:25:00,
2013-03-28 02:30:00,27.9,23.4,29.91,WNW,294,1.0,1.0,83,0.00,OVC,,0.00,WeatherDisplay:10.37,2013-03-28 01:30:00,
2013-03-28 02:35:00,29.8,25.3,29.92,NW,315,0.9,1.3,83,0.00,,,0.00,WUHU21636XXSP,2013-03-28 01:35:00,
2013-03-28 02:40:00,27.7,23.2,29.91,NW,311,2.0,2.0,83,0.00,OVC,,0.00,WeatherDisplay:10.37,2013-03-28 01:40:00,
2013-03-28 02:45:00,29.5,25.0,29.92,WNW,293,1.1,1.8,83,0.00,,,0.00,WUHU21636XXSP,2013-03-28 01:45:00,
2013-03-28 02:50:00,27.7,22.9,29.91,WNW,292,2.0,2.0,82,0.00,OVC,,0.00,WeatherDisplay:10.37,2013-03-28 01:50:00,
2013-03-28 02:55:00,29.5,24.7,29.92,WNW,293,2.2,2.2,82,0.00,,,0.00,WUHU21636XXSP,2013-03-28 01:55:00,
2013-03-28 03:00:00,27.5,22.7,29.91,WNW,292,0.0,2.0,82,0.00,OVC,,0.00,WeatherDisplay:10.37,2013-03-28 02:00:00,
2013-03-28 03:05:00,29.3,24.5,29.92,NW,315,2.2,2.2,82,0.00,,,0.00,WUHU21636XXSP,2013-03-28 02:05:00,
2013-03-28 03:10:00,27.3,22.5,29.91,NW,309,1.0,2.0,82,0.00,OVC,,0.00,WeatherDisplay:10.37,2013-03-28 02:10:00,
2013-03-28 03:15:00,29.1,24.6,29.92,WNW,293,1.8,2.2,83,0.00,,,0.00,WUHU21636XXSP,2013-03-28 02:15:00,
2013-03-28 03:20:00,27.1,22.7,29.91,WNW,300,1.0,2.0,83,0.00,OVC,,0.00,WeatherDisplay:10.37,2013-03-28 02:20:00,
2013-03-28 03:25:00,28.9,24.4,29.92,WNW,293,0.0,1.8,83,0.00,,,0.00,WUHU21636XXSP,2013-03-28 02:25:00,
2013-03-28 03:30:00,27.1,22.7,29.91,WNW,292,2.0,2.0,83,0.00,OVC,,0.00,WeatherDisplay:10.37,2013-03-28 02:30:00,
2013-03-28 03:35:00,28.8,24.3,29.92,NW,315,1.1,1.8,83,0.00,,,0.00,WUHU21636XXSP,2013-03-28 02:35:00,
2013-03-28 03:40:00,27.0,22.5,29.91,WNW,301,0.0,2.0,83,0.00,OVC,,0.00,WeatherDisplay:10.37,2013-03-28 02:40:00,
2013-03-28 03:45:00,28.8,24.3,29.92,WNW,293,0.0,1.1,83,0.00,,,0.00,WUHU21636XXSP,2013-03-28 02:45:00,
2013-03-28 03:50:00,27.1,22.7,29.91,WNW,292,0.0,0.0,83,0.00,BKN,,0.00,WeatherDisplay:10.37,2013-03-28 02:50:00,
2013-03-28 03:55:00,28.9,24.7,29.92,WNW,293,0.0,0.0,84,0.00,,,0.00,WUHU21636XXSP,2013-03-28 02:55:00,
2013-03-28 04:00:00,27.1,22.9,29.91,WNW,292,0.0,0.0,84,0.00,BKN,,0.00,WeatherDisplay:10.37,2013-03-28 03:00:00,
2013-03-28 04:05:00,28.9,24.7,29.92,WNW,293,0.0,0.0,84,0.00,,,0.00,WUHU21636XXSP,2013-03-28 03:05:00,
2013-03-28 04:10:00,27.1,22.9,29.91,WNW,292,0.0,0.0,84,0.00,BKN,,0.00,WeatherDisplay:10.37,2013-03-28 03:10:00,
2013-03-28 04:15:00,28.9,24.7,29.92,WNW,293,1.6,1.6,84,0.00,,,0.00,WUHU21636XXSP,2013-03-28 03:15:00,
2013-03-28 04:20:00,27.1,22.9,29.91,WNW,292,2.0,2.0,84,0.00,OVC,,0.00,WeatherDisplay:10.37,2013-03-28 03:20:00,
2013-03-28 04:25:00,28.9,24.9,29.92,WNW,293,0.7,2.5,85,0.00,,,0.00,WUHU21636XXSP,2013-03-28 03:25:00,
2013-03-28 04:30:00,28.9,24.9,29.92,WNW,293,0.0,2.5,85,0.00,,,0.00,WUHU21636XXSP,2013-03-28 03:30:00,
2013-03-28 04:31:00,27.1,23.2,29.91,WNW,292,0.0,2.0,85,0.00,OVC,,0.00,WeatherDisplay:10.37,2013-03-28 03:31:00,
2013-03-28 04:35:00,29.1,25.1,29.92,WNW,293,0.4,0.7,85,0.00,,,0.00,WUHU21636XXSP,2013-03-28 03:35:00,
2013-03-28 04:40:00,27.3,23.4,29.91,WNW,292,0.0,0.0,85,0.00,OVC,,0.00,WeatherDisplay:10.37,2013-03-28 03:40:00,
2013-03-28 04:45:00,29.1,25.1,29.92,WNW,293,0.4,0.4,85,0.00,,,0.00,WUHU21636XXSP,2013-03-28 03:45:00,
2013-03-28 04:50:00,27.3,23.4,29.91,WNW,292,0.0,0.0,85,0.00,-SN,,0.00,WeatherDisplay:10.37,2013-03-28 03:50:00,
2013-03-28 04:55:00,29.1,25.1,29.92,WNW,293,0.9,0.9,85,0.00,,,0.00,WUHU21636XXSP,2013-03-28 03:55:00,
2013-03-28 05:00:00,27.3,23.4,29.91,WNW,292,1.0,1.0,85,0.00,-SN,,0.00,WeatherDisplay:10.37,2013-03-28 04:00:00,
2013-03-28 05:05:00,29.1,25.1,29.92,WNW,293,0.0,0.9,85,0.00,,,0.00,WUHU21636XXSP,2013-03-28 04:05:00,
2013-03-28 05:10:00,29.1,25.1,29.92,WNW,293,0.0,0.7,85,0.00,,,0.00,WUHU21636XXSP,2013-03-28 04:10:00,
2013-03-28 05:15:00,29.1,25.1,29.92,WNW,293,0.0,0.0,85,0.00,,,0.00,WUHU21636XXSP,2013-03-28 04:15:00,
2013-03-28 05:20:00,27.5,23.9,29.91,WNW,294,0.0,1.0,86,0.00,-SN,,0.00,WeatherDisplay:10.37,2013-03-28 04:20:00,
2013-03-28 05:25:00,29.3,25.6,29.92,WNW,293,0.7,0.7,86,0.00,,,0.00,WUHU21636XXSP,2013-03-28 04:25:00,
2013-03-28 05:30:00,27.5,23.9,29.91,WNW,303,1.0,1.0,86,0.00,OVC,,0.00,WeatherDisplay:10.37,2013-03-28 04:30:00,
2013-03-28 05:35:00,29.3,25.6,29.92,WNW,293,0.0,1.3,86,0.00,,,0.00,WUHU21636XXSP,2013-03-28 04:35:00,
2013-03-28 05:40:00,27.5,23.9,29.91,WNW,292,1.0,1.0,86,0.00,OVC,,0.00,WeatherDisplay:10.37,2013-03-28 04:40:00,
2013-03-28 05:45:00,29.3,25.6,29.92,WNW,293,1.1,1.1,86,0.00,,,0.00,WUHU21636XXSP,2013-03-28 04:45:00,
2013-03-28 05:50:00,29.3,25.6,29.92,WNW,293,1.6,1.6,86,0.00,,,0.00,WUHU21636XXSP,2013-03-28 04:50:00,
2013-03-28 05:51:00,27.5,23.9,29.91,WNW,292,1.0,2.0,86,0.00,OVC,,0.00,WeatherDisplay:10.37,2013-03-28 04:51:00,
2013-03-28 05:55:00,29.3,25.6,29.92,WNW,293,1.6,1.6,86,0.00,,,0.00,WUHU21636XXSP,2013-03-28 04:55:00,
2013-03-28 06:00:00,27.5,23.9,29.91,WNW,292,2.0,2.0,86,0.00,OVC,,0.00,WeatherDisplay:10.37,2013-03-28 05:00:00,
2013-03-28 06:05:00,29.3,25.9,29.92,WNW,293,0.7,2.2,87,0.00,,,0.00,WUHU21636XXSP,2013-03-28 05:05:00,
2013-03-28 06:10:00,27.5,23.9,29.91,WNW,292,1.0,2.0,86,0.00,OVC,,0.00,WeatherDisplay:10.37,2013-03-28 05:10:00,
2013-03-28 06:15:00,29.3,25.9,29.92,WNW,293,0.0,1.6,87,0.00,,,0.00,WUHU21636XXSP,2013-03-28 05:15:00,
2013-03-28 06:20:00,29.3,25.9,29.92,WNW,293,0.4,1.6,87,0.00,,,0.00,WUHU21636XXSP,2013-03-28 05:20:00,
2013-03-28 06:25:00,29.3,25.9,29.92,NW,315,0.4,0.4,87,0.00,,,0.00,WUHU21636XXSP,2013-03-28 05:25:00,
2013-03-28 06:30:00,29.3,25.9,29.92,WNW,293,0.4,0.4,87,0.00,,,0.00,WUHU21636XXSP,2013-03-28 05:30:00,
2013-03-28 06:31:00,27.5,24.1,29.91,WNW,303,0.0,2.0,87,0.00,OVC,,0.00,WeatherDisplay:10.37,2013-03-28 05:31:00,
2013-03-28 06:35:00,29.3,25.9,29.92,WNW,293,0.0,0.4,87,0.00,,,0.00,WUHU21636XXSP,2013-03-28 05:35:00,
2013-03-28 06:40:00,27.5,24.1,29.91,WNW,293,1.0,2.0,87,0.00,OVC,,0.00,WeatherDisplay:10.37,2013-03-28 05:40:00,
2013-03-28 06:45:00,29.3,25.9,29.92,WNW,293,0.0,1.6,87,0.00,,,0.00,WUHU21636XXSP,2013-03-28 05:45:00,
2013-03-28 06:50:00,29.3,25.9,29.92,WNW,293,0.0,1.6,87,0.00,,,0.00,WUHU21636XXSP,2013-03-28 05:50:00,
2013-03-28 06:55:00,29.3,25.9,29.92,WNW,293,0.7,0.7,87,0.00,,,0.00,WUHU21636XXSP,2013-03-28 05:55:00,
2013-03-28 07:00:00,29.3,25.9,29.91,NW,315,0.9,0.9,87,0.00,,,0.00,WUHU21636XXSP,2013-03-28 06:00:00,
2013-03-28 07:05:00,29.3,25.9,29.92,NW,315,2.0,2.0,87,0.00,,,0.00,WUHU21636XXSP,2013-03-28 06:05:00,
2013-03-28 07:10:00,27.5,24.1,29.91,NW,310,2.0,3.0,87,0.00,-SN,,0.00,WeatherDisplay:10.37,2013-03-28 06:10:00,
2013-03-28 07:15:00,29.3,25.9,29.91,WNW,293,2.0,2.7,87,0.00,,,0.00,WUHU21636XXSP,2013-03-28 06:15:00,
2013-03-28 07:20:00,29.3,25.9,29.92,WNW,293,0.9,2.7,87,0.00,,,0.00,WUHU21636XXSP,2013-03-28 06:20:00,
2013-03-28 07:25:00,29.5,26.1,29.91,WNW,293,0.7,2.0,87,0.00,,,0.00,WUHU21636XXSP,2013-03-28 06:25:00,
2013-03-28 07:30:00,29.5,26.1,29.91,WNW,293,3.1,3.1,87,0.00,,,0.00,WUHU21636XXSP,2013-03-28 06:30:00,
2013-03-28 07:31:00,27.7,24.3,29.91,WNW,292,3.0,3.0,87,0.00,-SN,,0.00,WeatherDisplay:10.37,2013-03-28 06:31:00,
2013-03-28 07:35:00,29.5,26.1,29.91,WNW,293,1.8,3.1,87,0.00,,,0.00,WUHU21636XXSP,2013-03-28 06:35:00,
2013-03-28 07:40:00,27.7,24.3,29.91,WNW,292,0.0,3.0,87,0.00,-SN,,0.00,WeatherDisplay:10.37,2013-03-28 06:40:00,
2013-03-28 07:45:00,29.5,26.1,29.91,WNW,293,2.0,2.0,87,0.00,,,0.00,WUHU21636XXSP,2013-03-28 06:45:00,
2013-03-28 07:50:00,27.7,24.3,29.91,WNW,292,1.0,2.0,87,0.00,-SN,,0.00,WeatherDisplay:10.37,2013-03-28 06:50:00,
2013-03-28 07:55:00,29.7,26.5,29.91,NW,315,0.4,2.0,88,0.00,,,0.00,WUHU21636XXSP,2013-03-28 06:55:00,
2013-03-28 08:00:00,28.0,24.7,29.91,WNW,298,0.0,1.0,87,0.00,-SN,,0.00,WeatherDisplay:10.37,2013-03-28 07:00:00,
2013-03-28 08:05:00,29.8,26.4,29.91,East,90,0.0,0.4,87,0.00,,,0.00,WUHU21636XXSP,2013-03-28 07:05:00,
2013-03-28 08:10:00,28.0,24.7,29.90,NW,323,1.0,1.0,87,0.00,-SN,,0.00,WeatherDisplay:10.37,2013-03-28 07:10:00,
2013-03-28 08:15:00,29.8,26.6,29.91,WNW,293,1.6,1.6,88,0.00,,,0.00,WUHU21636XXSP,2013-03-28 07:15:00,
2013-03-28 08:20:00,28.0,24.9,29.90,WNW,292,0.0,2.0,88,0.00,-SN,,0.00,WeatherDisplay:10.37,2013-03-28 07:20:00,
2013-03-28 08:25:00,30.0,26.8,29.91,SE,135,0.0,1.6,88,0.00,,,0.00,WUHU21636XXSP,2013-03-28 07:25:00,
2013-03-28 08:30:00,28.2,25.1,29.90,SSE,148,0.0,0.0,88,0.00,-SN,,0.00,WeatherDisplay:10.37,2013-03-28 07:30:00,
2013-03-28 08:35:00,30.0,26.8,29.91,NNW,338,0.0,0.0,88,0.00,,,0.00,WUHU21636XXSP,2013-03-28 07:35:00,
2013-03-28 08:40:00,28.6,25.5,29.91,NW,324,1.0,1.0,88,0.00,-SN,,0.00,WeatherDisplay:10.37,2013-03-28 07:40:00,
2013-03-28 08:45:00,30.4,27.2,29.91,West,270,0.0,1.3,88,0.00,,,0.00,WUHU21636XXSP,2013-03-28 07:45:00,
2013-03-28 08:50:00,28.6,25.5,29.90,West,275,0.0,1.0,88,0.00,-SN,,0.00,WeatherDisplay:10.37,2013-03-28 07:50:00,
2013-03-28 08:55:00,30.6,27.2,29.91,WNW,293,1.3,1.3,87,0.00,,,0.00,WUHU21636XXSP,2013-03-28 07:55:00,
2013-03-28 09:00:00,28.9,25.6,29.91,West,262,0.0,1.0,87,0.00,-SN,,0.00,WeatherDisplay:10.37,2013-03-28 08:00:00,
2013-03-28 09:05:00,30.9,27.5,29.91,NW,315,1.6,1.6,87,0.00,,,0.00,WUHU21636XXSP,2013-03-28 08:05:00,
2013-03-28 09:10:00,30.9,27.5,29.91,WSW,248,1.1,1.6,87,0.00,,,0.00,WUHU21636XXSP,2013-03-28 08:10:00,
2013-03-28 09:15:00,31.1,27.6,29.91,SE,135,0.7,1.6,87,0.00,,,0.00,WUHU21636XXSP,2013-03-28 08:15:00,
2013-03-28 09:20:00,29.5,26.1,29.90,SW,222,0.0,2.0,87,0.00,-SN,,0.00,WeatherDisplay:10.37,2013-03-28 08:20:00,
2013-03-28 09:25:00,31.5,28.0,29.91,NW,315,2.9,2.9,87,0.00,,,0.00,WUHU21636XXSP,2013-03-28 08:25:00,
2013-03-28 09:30:00,29.8,26.4,29.90,NW,324,2.0,3.0,87,0.00,-SN,,0.00,WeatherDisplay:10.37,2013-03-28 08:30:00,
2013-03-28 09:35:00,31.6,27.9,29.91,WNW,293,0.4,2.9,86,0.00,,,0.00,WUHU21636XXSP,2013-03-28 08:35:00,
2013-03-28 09:40:00,29.8,26.2,29.90,WNW,292,1.0,3.0,86,0.00,-SN,,0.00,WeatherDisplay:10.37,2013-03-28 08:40:00,
2013-03-28 09:45:00,31.8,28.1,29.91,WNW,293,1.1,1.3,86,0.00,,,0.00,WUHU21636XXSP,2013-03-28 08:45:00,
2013-03-28 09:50:00,30.0,26.3,29.91,WNW,297,0.0,1.0,86,0.00,-SN,,0.00,WeatherDisplay:10.37,2013-03-28 08:50:00,
2013-03-28 09:55:00,32.0,28.3,29.91,WNW,293,0.0,1.1,86,0.00,,,0.00,WUHU21636XXSP,2013-03-28 08:55:00,
2013-03-28 10:00:00,30.4,26.7,29.91,NNW,332,3.0,3.0,86,0.00,-SN,,0.00,WeatherDisplay:10.37,2013-03-28 09:00:00,
2013-03-28 10:05:00,32.0,28.0,29.91,WNW,293,3.6,3.6,85,0.00,,,0.00,WUHU21636XXSP,2013-03-28 09:05:00,
2013-03-28 10:10:00,30.4,26.4,29.91,WNW,301,1.0,4.0,85,0.00,-SN,,0.00,WeatherDisplay:10.37,2013-03-28 09:10:00,
2013-03-28 10:15:00,32.4,28.4,29.91,WNW,293,0.0,3.6,85,0.00,,,0.00,WUHU21636XXSP,2013-03-28 09:15:00,
2013-03-28 10:20:00,32.5,28.2,29.91,WNW,293,0.0,1.3,84,0.00,,,0.00,WUHU21636XXSP,2013-03-28 09:20:00,
2013-03-28 10:25:00,32.5,28.2,29.91,WNW,293,0.0,0.0,84,0.00,,,0.00,WUHU21636XXSP,2013-03-28 09:25:00,
2013-03-28 10:30:00,30.7,26.5,29.90,WNW,292,3.0,3.0,84,0.00,-SN,,0.00,WeatherDisplay:10.37,2013-03-28 09:30:00,
2013-03-28 10:35:00,32.7,28.4,29.91,SE,135,0.0,2.9,84,0.00,,,0.00,WUHU21636XXSP,2013-03-28 09:35:00,
2013-03-28 10:40:00,32.9,28.3,29.91,NW,315,0.0,2.9,83,0.00,,,0.00,WUHU21636XXSP,2013-03-28 09:40:00,
2013-03-28 10:41:00,31.1,26.5,29.90,WNW,285,0.0,3.0,83,0.00,-SN,,0.00,WeatherDisplay:10.37,2013-03-28 09:41:00,
2013-03-28 10:45:00,33.1,28.5,29.91,West,270,1.3,1.3,83,0.00,,,0.00,WUHU21636XXSP,2013-03-28 09:45:00,
2013-03-28 10:50:00,31.3,26.7,29.91,WNW,282,1.0,1.0,83,0.00,-SN,,0.00,WeatherDisplay:10.37,2013-03-28 09:50:00,
2013-03-28 10:55:00,33.1,28.5,29.91,WNW,293,0.0,1.3,83,0.00,,,0.00,WUHU21636XXSP,2013-03-28 09:55:00,
2013-03-28 11:00:00,33.1,28.5,29.91,NW,315,1.8,1.8,83,0.00,,,0.00,WUHU21636XXSP,2013-03-28 10:00:00,
2013-03-28 11:01:00,31.3,26.7,29.91,WNW,296,2.0,2.0,83,0.00,-SN,,0.00,WeatherDisplay:10.37,2013-03-28 10:01:00,
2013-03-28 11:05:00,33.1,28.5,29.91,WNW,293,0.9,1.8,83,0.00,,,0.00,WUHU21636XXSP,2013-03-28 10:05:00,
2013-03-28 11:10:00,31.6,27.1,29.90,NW,304,2.0,2.0,83,0.00,-SN,,0.00,WeatherDisplay:10.37,2013-03-28 10:10:00,
2013-03-28 11:15:00,33.4,28.8,29.91,West,270,0.0,1.8,83,0.00,,,0.00,WUHU21636XXSP,2013-03-28 10:15:00,
2013-03-28 11:20:00,31.8,27.0,29.90,WNW,285,1.0,2.0,82,0.00,-SN,,0.00,WeatherDisplay:10.37,2013-03-28 10:20:00,
2013-03-28 11:25:00,34.2,29.3,29.91,NW,315,0.4,0.7,82,0.00,,,0.00,WUHU21636XXSP,2013-03-28 10:25:00,
2013-03-28 11:30:00,34.3,29.4,29.91,SSE,158,0.0,0.7,82,0.00,,,0.00,WUHU21636XXSP,2013-03-28 10:30:00,
2013-03-28 11:35:00,34.5,29.0,29.91,East,90,0.9,0.9,80,0.00,,,0.00,WUHU21636XXSP,2013-03-28 10:35:00,
2013-03-28 11:40:00,33.3,27.5,29.89,SE,132,0.0,1.0,79,0.00,-SN,,0.00,WeatherDisplay:10.37,2013-03-28 10:40:00,
2013-03-28 11:45:00,35.4,29.9,29.90,WNW,293,0.9,0.9,80,0.00,,,0.00,WUHU21636XXSP,2013-03-28 10:45:00,
2013-03-28 11:50:00,35.8,29.0,29.90,ESE,113,0.0,0.9,76,0.00,,,0.00,WUHU21636XXSP,2013-03-28 10:50:00,
2013-03-28 11:55:00,35.6,28.2,29.90,NW,315,1.1,1.1,74,0.00,,,0.00,WUHU21636XXSP,2013-03-28 10:55:00,
2013-03-28 12:00:00,34.3,26.6,29.89,NNW,335,0.0,1.0,73,0.00,-SN,,0.00,WeatherDisplay:10.37,2013-03-28 11:00:00,
2013-03-28 12:05:00,36.0,28.6,29.90,SW,225,0.0,1.1,74,0.00,,,0.00,WUHU21636XXSP,2013-03-28 11:05:00,
2013-03-28 12:10:00,34.3,26.2,29.88,South,180,0.0,0.0,72,0.00,-SN,,0.00,WeatherDisplay:10.37,2013-03-28 11:10:00,
2013-03-28 12:15:00,36.3,28.2,29.89,SE,135,0.0,0.0,72,0.00,,,0.00,WUHU21636XXSP,2013-03-28 11:15:00,
2013-03-28 12:20:00,34.7,26.6,29.88,SE,135,0.0,0.0,72,0.00,-SN,,0.00,WeatherDisplay:10.37,2013-03-28 11:20:00,
2013-03-28 12:25:00,36.9,28.4,29.89,SE,135,0.0,0.0,71,0.00,,,0.00,WUHU21636XXSP,2013-03-28 11:25:00,
2013-03-28 12:30:00,35.2,26.1,29.88,SE,135,0.0,0.0,69,0.00,-SN,,0.00,WeatherDisplay:10.37,2013-03-28 11:30:00,
2013-03-28 12:35:00,37.0,27.8,29.89,SE,135,2.0,2.0,69,0.00,,,0.00,WUHU21636XXSP,2013-03-28 11:35:00,
2013-03-28 12:40:00,36.7,27.6,29.89,West,270,1.6,2.0,69,0.00,,,0.00,WUHU21636XXSP,2013-03-28 11:40:00,
2013-03-28 12:41:00,34.9,25.7,29.88,SE,140,1.0,2.0,69,0.00,-SN,,0.00,WeatherDisplay:10.37,2013-03-28 11:41:00,
2013-03-28 12:45:00,36.7,27.6,29.89,ESE,113,0.0,2.0,69,0.00,,,0.00,WUHU21636XXSP,2013-03-28 11:45:00,
2013-03-28 12:50:00,35.2,26.1,29.88,South,169,1.0,2.0,69,0.00,BKN,,0.00,WeatherDisplay:10.37,2013-03-28 11:50:00,
2013-03-28 12:55:00,37.2,28.0,29.89,ESE,113,1.3,1.6,69,0.00,,,0.00,WUHU21636XXSP,2013-03-28 11:55:00,
2013-03-28 13:00:00,35.4,25.9,29.88,ESE,113,1.0,2.0,68,0.00,BKN,,0.00,WeatherDisplay:10.37,2013-03-28 12:00:00,
2013-03-28 13:05:00,37.2,27.7,29.89,ESE,113,0.0,1.3,68,0.00,,,0.00,WUHU21636XXSP,2013-03-28 12:05:00,
2013-03-28 13:10:00,35.4,25.9,29.88,ESE,123,0.0,1.0,68,0.00,BKN,,0.00,WeatherDisplay:10.37,2013-03-28 12:10:00,
2013-03-28 13:15:00,37.2,27.7,29.89,ESE,113,1.1,1.1,68,0.00,,,0.00,WUHU21636XXSP,2013-03-28 12:15:00,
2013-03-28 13:20:00,37.6,28.1,29.89,SE,135,0.0,1.1,68,0.00,,,0.00,WUHU21636XXSP,2013-03-28 12:20:00,
2013-03-28 13:21:00,35.8,26.2,29.88,SSE,154,0.0,1.0,68,0.00,BKN,,0.00,WeatherDisplay:10.37,2013-03-28 12:21:00,
2013-03-28 13:25:00,37.6,27.7,29.89,East,90,0.0,1.1,67,0.00,,,0.00,WUHU21636XXSP,2013-03-28 12:25:00,
2013-03-28 13:30:00,36.0,25.7,29.88,ESE,110,3.0,3.0,66,0.00,BKN,,0.00,WeatherDisplay:10.37,2013-03-28 12:30:00,
2013-03-28 13:35:00,37.2,27.0,29.89,ESE,113,3.4,3.4,66,0.00,,,0.00,WUHU21636XXSP,2013-03-28 12:35:00,
2013-03-28 13:40:00,35.4,25.5,29.88,ESE,111,0.0,3.0,67,0.00,BKN,,0.00,WeatherDisplay:10.37,2013-03-28 12:40:00,
2013-03-28 13:45:00,37.2,27.0,29.88,ESE,113,0.0,3.4,66,0.00,,,0.00,WUHU21636XXSP,2013-03-28 12:45:00,
2013-03-28 13:50:00,35.8,25.5,29.88,ESE,115,0.0,0.0,66,0.00,BKN,,0.00,WeatherDisplay:10.37,2013-03-28 12:50:00,
2013-03-28 13:55:00,38.1,27.8,29.88,SE,135,1.8,1.8,66,0.00,,,0.00,WUHU21636XXSP,2013-03-28 12:55:00,
2013-03-28 14:00:00,38.1,27.4,29.88,ESE,113,3.4,3.4,65,0.00,,,0.00,WUHU21636XXSP,2013-03-28 13:00:00,
2013-03-28 14:05:00,38.1,27.4,29.88,SE,135,0.0,3.4,65,0.00,,,0.00,WUHU21636XXSP,2013-03-28 13:05:00,
2013-03-28 14:07:00,36.3,25.7,29.87,ESE,121,0.0,3.0,65,0.00,BKN,,0.00,WeatherDisplay:10.37,2013-03-28 13:07:00,
2013-03-28 14:10:00,38.1,27.4,29.88,ESE,113,2.0,3.4,65,0.00,,,0.00,WUHU21636XXSP,2013-03-28 13:10:00,
2013-03-28 14:15:00,38.3,27.6,29.88,ESE,113,0.0,2.0,65,0.00,,,0.00,WUHU21636XXSP,2013-03-28 13:15:00,
2013-03-28 14:20:00,38.8,27.7,29.88,ENE,68,0.4,2.0,64,0.00,,,0.00,WUHU21636XXSP,2013-03-28 13:20:00,
2013-03-28 14:25:00,39.7,28.6,29.88,West,270,0.0,0.4,64,0.00,,,0.00,WUHU21636XXSP,2013-03-28 13:25:00,
2013-03-28 14:30:00,37.9,26.1,29.87,WNW,286,0.0,0.0,62,0.00,BKN,,0.00,WeatherDisplay:10.37,2013-03-28 13:30:00,
2013-03-28 14:35:00,39.4,27.5,29.88,NW,315,0.0,0.0,62,0.00,,,0.00,WUHU21636XXSP,2013-03-28 13:35:00,
2013-03-28 14:40:00,39.4,27.5,29.88,South,180,0.0,0.0,62,0.00,,,0.00,WUHU21636XXSP,2013-03-28 13:40:00,
2013-03-28 14:45:00,39.4,27.9,29.88,SE,135,0.0,0.0,63,0.00,,,0.00,WUHU21636XXSP,2013-03-28 13:45:00,
2013-03-28 14:50:00,39.4,27.9,29.88,East,90,0.0,0.0,63,0.00,,,0.00,WUHU21636XXSP,2013-03-28 13:50:00,
2013-03-28 14:51:00,37.6,26.1,29.87,SSE,149,0.0,0.0,63,0.00,BKN,,0.00,WeatherDisplay:10.37,2013-03-28 13:51:00,
2013-03-28 14:55:00,39.4,27.5,29.87,ESE,113,0.0,0.0,62,0.00,,,0.00,WUHU21636XXSP,2013-03-28 13:55:00,
2013-03-28 15:00:00,37.9,26.1,29.86,ESE,108,0.0,0.0,62,0.00,BKN,,0.00,WeatherDisplay:10.37,2013-03-28 14:00:00,
2013-03-28 15:05:00,39.7,27.8,29.87,SW,225,0.4,0.4,62,0.00,,,0.00,WUHU21636XXSP,2013-03-28 14:05:00,
2013-03-28 15:10:00,40.1,28.2,29.87,NW,315,0.4,0.4,62,0.00,,,0.00,WUHU21636XXSP,2013-03-28 14:10:00,
2013-03-28 15:11:00,38.3,26.4,29.86,SE,130,0.0,0.0,62,0.00,BKN,,0.00,WeatherDisplay:10.37,2013-03-28 14:11:00,
2013-03-28 15:15:00,40.3,28.0,29.87,SSE,158,0.0,0.4,61,0.00,,,0.00,WUHU21636XXSP,2013-03-28 14:15:00,
2013-03-28 15:20:00,40.6,28.3,29.87,WNW,293,0.0,0.4,61,0.00,,,0.00,WUHU21636XXSP,2013-03-28 14:20:00,
2013-03-28 15:21:00,38.8,26.5,29.86,South,183,0.0,0.0,61,0.00,BKN,,0.00,WeatherDisplay:10.37,2013-03-28 14:21:00,
2013-03-28 15:25:00,40.6,28.3,29.87,WNW,293,1.6,1.6,61,0.00,,,0.00,WUHU21636XXSP,2013-03-28 14:25:00,
2013-03-28 15:30:00,40.3,27.6,29.87,SE,135,2.2,2.2,60,0.00,,,0.00,WUHU21636XXSP,2013-03-28 14:30:00,
2013-03-28 15:35:00,40.6,28.3,29.87,ESE,113,0.0,2.2,61,0.00,,,0.00,WUHU21636XXSP,2013-03-28 14:35:00,
2013-03-28 15:40:00,38.8,26.5,29.86,SE,128,0.0,2.0,61,0.00,BKN,,0.00,WeatherDisplay:10.37,2013-03-28 14:40:00,
2013-03-28 15:45:00,40.6,28.3,29.87,WNW,293,0.0,0.0,61,0.00,,,0.00,WUHU21636XXSP,2013-03-28 14:45:00,
2013-03-28 15:50:00,40.6,28.3,29.87,WNW,293,0.0,0.0,61,0.00,,,0.00,WUHU21636XXSP,2013-03-28 14:50:00,
2013-03-28 15:55:00,40.3,28.4,29.87,ESE,113,0.0,0.0,62,0.00,,,0.00,WUHU21636XXSP,2013-03-28 14:55:00,
2013-03-28 16:00:00,38.5,26.6,29.86,ESE,112,0.0,0.0,62,0.00,BKN,,0.00,WeatherDisplay:10.37,2013-03-28 15:00:00,
2013-03-28 16:05:00,40.5,28.6,29.87,WNW,293,0.0,0.0,62,0.00,,,0.00,WUHU21636XXSP,2013-03-28 15:05:00,
2013-03-28 16:10:00,40.6,28.7,29.86,WNW,293,0.0,0.0,62,0.00,,,0.00,WUHU21636XXSP,2013-03-28 15:10:00,
2013-03-28 16:11:00,38.8,26.9,29.85,WNW,292,0.0,0.0,62,0.00,BKN,,0.00,WeatherDisplay:10.37,2013-03-28 15:11:00,
2013-03-28 16:15:00,40.6,28.7,29.86,WNW,293,0.0,0.0,62,0.00,,,0.00,WUHU21636XXSP,2013-03-28 15:15:00,
2013-03-28 16:20:00,40.6,28.3,29.86,WNW,293,2.0,2.0,61,0.00,,,0.00,WUHU21636XXSP,2013-03-28 15:20:00,
2013-03-28 16:21:00,38.8,26.5,29.85,WNW,292,2.0,2.0,61,0.00,BKN,,0.00,WeatherDisplay:10.37,2013-03-28 15:21:00,
2013-03-28 16:25:00,40.3,28.0,29.86,WNW,293,0.0,2.0,61,0.00,,,0.00,WUHU21636XXSP,2013-03-28 15:25:00,
2013-03-28 16:30:00,40.3,28.0,29.86,WNW,293,0.9,2.0,61,0.00,,,0.00,WUHU21636XXSP,2013-03-28 15:30:00,
2013-03-28 16:35:00,40.3,28.4,29.86,SE,135,0.0,0.9,62,0.00,,,0.00,WUHU21636XXSP,2013-03-28 15:35:00,
2013-03-28 16:40:00,38.5,27.0,29.85,SSE,156,0.0,2.0,63,0.00,BKN,,0.00,WeatherDisplay:10.37,2013-03-28 15:40:00,
2013-03-28 16:45:00,40.5,29.0,29.86,WNW,293,0.4,0.4,63,0.00,,,0.00,WUHU21636XXSP,2013-03-28 15:45:00,
2013-03-28 16:50:00,38.5,26.6,29.85,South,182,1.0,1.0,62,0.00,BKN,,0.00,WeatherDisplay:10.37,2013-03-28 15:50:00,
2013-03-28 16:55:00,40.1,28.6,29.85,NW,315,0.7,1.3,63,0.00,,,0.00,WUHU21636XXSP,2013-03-28 15:55:00,
2013-03-28 17:00:00,38.1,26.6,29.85,WNW,302,2.0,2.0,63,0.00,BKN,,0.00,WeatherDisplay:10.37,2013-03-28 16:00:00,
2013-03-28 17:05:00,39.9,28.4,29.85,NW,315,2.5,2.5,63,0.00,,,0.00,WUHU21636XXSP,2013-03-28 16:05:00,
2013-03-28 17:10:00,38.1,26.6,29.84,NW,313,2.0,2.0,63,0.00,BKN,,0.00,WeatherDisplay:10.37,2013-03-28 16:10:00,
2013-03-28 17:15:00,39.9,28.4,29.85,WNW,293,0.0,2.5,63,0.00,,,0.00,WUHU21636XXSP,2013-03-28 16:15:00,
2013-03-28 17:20:00,38.1,27.0,29.84,WNW,292,0.0,2.0,64,0.00,BKN,,0.00,WeatherDisplay:10.37,2013-03-28 16:20:00,
2013-03-28 17:25:00,39.9,28.8,29.85,WNW,293,0.0,0.0,64,0.00,,,0.00,WUHU21636XXSP,2013-03-28 16:25:00,
2013-03-28 17:30:00,37.9,26.8,29.84,WNW,292,0.0,0.0,64,0.00,BKN,,0.00,WeatherDisplay:10.37,2013-03-28 16:30:00,
2013-03-28 17:35:00,39.7,28.6,29.85,WNW,293,0.0,0.4,64,0.00,,,0.00,WUHU21636XXSP,2013-03-28 16:35:00,
2013-03-28 17:40:00,37.9,26.8,29.83,WNW,292,0.0,0.0,64,0.00,BKN,,0.00,WeatherDisplay:10.37,2013-03-28 16:40:00,
2013-03-28 17:45:00,39.7,28.6,29.84,WNW,293,0.7,0.7,64,0.00,,,0.00,WUHU21636XXSP,2013-03-28 16:45:00,
2013-03-28 17:50:00,37.8,26.7,29.83,WNW,292,0.0,1.0,64,0.00,CLR,,0.00,WeatherDisplay:10.37,2013-03-28 16:50:00,
2013-03-28 17:55:00,39.4,28.7,29.84,WNW,293,0.0,0.7,65,0.00,,,0.00,WUHU21636XXSP,2013-03-28 16:55:00,
2013-03-28 18:00:00,37.6,26.9,29.83,WNW,292,0.0,0.0,65,0.00,CLR,,0.00,WeatherDisplay:10.37,2013-03-28 17:00:00,
2013-03-28 18:05:00,39.2,28.5,29.84,WNW,293,0.0,0.0,65,0.00,,,0.00,WUHU21636XXSP,2013-03-28 17:05:00,
2013-03-28 18:10:00,37.2,26.9,29.83,WNW,292,0.0,0.0,66,0.00,CLR,,0.00,WeatherDisplay:10.37,2013-03-28 17:10:00,
2013-03-28 18:15:00,39.0,28.7,29.84,WNW,293,0.0,0.0,66,0.00,,,0.00,WUHU21636XXSP,2013-03-28 17:15:00,
2013-03-28 18:20:00,37.2,26.9,29.84,WNW,292,0.0,0.0,66,0.00,BKN,,0.00,WeatherDisplay:10.37,2013-03-28 17:20:00,
2013-03-28 18:25:00,38.8,28.5,29.84,WNW,293,2.5,2.5,66,0.00,,,0.00,WUHU21636XXSP,2013-03-28 17:25:00,
2013-03-28 18:30:00,38.8,28.5,29.84,SW,225,0.0,2.5,66,0.00,,,0.00,WUHU21636XXSP,2013-03-28 17:30:00,
2013-03-28 18:35:00,38.8,28.5,29.85,SE,135,0.0,2.5,66,0.00,,,0.00,WUHU21636XXSP,2013-03-28 17:35:00,
2013-03-28 18:40:00,37.0,27.1,29.84,South,180,0.0,2.0,67,0.00,BKN,,0.00,WeatherDisplay:10.37,2013-03-28 17:40:00,
2013-03-28 18:45:00,38.7,28.8,29.85,SE,135,0.0,0.0,67,0.00,,,0.00,WUHU21636XXSP,2013-03-28 17:45:00,
2013-03-28 18:50:00,38.7,28.8,29.85,ESE,113,0.0,0.0,67,0.00,,,0.00,WUHU21636XXSP,2013-03-28 17:50:00,
2013-03-28 18:51:00,36.9,26.9,29.84,NNE,33,0.0,0.0,67,0.00,BKN,,0.00,WeatherDisplay:10.37,2013-03-28 17:51:00,
2013-03-28 18:55:00,38.5,28.6,29.85,WNW,293,1.1,1.1,67,0.00,,,0.00,WUHU21636XXSP,2013-03-28 17:55:00,
2013-03-28 19:00:00,36.7,26.7,29.84,ESE,112,3.0,3.0,67,0.00,BKN,,0.00,WeatherDisplay:10.37,2013-03-28 18:00:00,
2013-03-28 19:05:00,38.5,28.9,29.84,ESE,113,2.2,3.1,68,0.00,,,0.00,WUHU21636XXSP,2013-03-28 18:05:00,
2013-03-28 19:10:00,36.5,26.9,29.83,ESE,112,3.0,4.0,68,0.00,BKN,,0.00,WeatherDisplay:10.37,2013-03-28 18:10:00,
2013-03-28 19:15:00,38.1,28.5,29.84,ESE,113,0.7,3.8,68,0.00,,,0.00,WUHU21636XXSP,2013-03-28 18:15:00,
2013-03-28 19:20:00,36.3,26.8,29.84,ESE,112,0.0,4.0,68,0.00,OVC,,0.00,WeatherDisplay:10.37,2013-03-28 18:20:00,
2013-03-28 19:25:00,38.1,28.5,29.85,ESE,113,1.3,1.3,68,0.00,,,0.00,WUHU21636XXSP,2013-03-28 18:25:00,
2013-03-28 19:30:00,36.1,26.6,29.83,ESE,112,0.0,1.0,68,0.00,OVC,,0.00,WeatherDisplay:10.37,2013-03-28 18:30:00,
2013-03-28 19:35:00,37.9,28.4,29.84,WNW,293,0.0,1.3,68,0.00,,,0.00,WUHU21636XXSP,2013-03-28 18:35:00,
2013-03-28 19:40:00,37.8,28.3,29.84,SW,225,0.0,0.0,68,0.00,,,0.00,WUHU21636XXSP,2013-03-28 18:40:00,
2013-03-28 19:41:00,36.0,26.4,29.83,WSW,258,0.0,0.0,68,0.00,OVC,,0.00,WeatherDisplay:10.37,2013-03-28 18:41:00,
2013-03-28 19:45:00,37.8,28.3,29.85,ESE,113,4.9,4.9,68,0.00,,,0.00,WUHU21636XXSP,2013-03-28 18:45:00,
2013-03-28 19:50:00,35.8,26.2,29.83,SE,125,1.0,5.0,68,0.00,OVC,,0.00,WeatherDisplay:10.37,2013-03-28 18:50:00,
2013-03-28 19:55:00,37.6,28.1,29.84,NW,315,2.0,4.9,68,0.00,,,0.00,WUHU21636XXSP,2013-03-28 18:55:00,
2013-03-28 20:00:00,35.8,26.6,29.83,West,278,0.0,2.0,69,0.00,OVC,,0.00,WeatherDisplay:10.37,2013-03-28 19:00:00,
2013-03-28 20:05:00,37.2,28.0,29.84,SSW,203,0.4,2.0,69,0.00,,,0.00,WUHU21636XXSP,2013-03-28 19:05:00,
2013-03-28 20:10:00,35.4,26.6,29.83,SE,144,0.0,0.0,70,0.00,OVC,,0.00,WeatherDisplay:10.37,2013-03-28 19:10:00,
2013-03-28 20:15:00,37.2,28.4,29.84,NW,315,1.8,1.8,70,0.00,,,0.00,WUHU21636XXSP,2013-03-28 19:15:00,
2013-03-28 20:20:00,35.2,26.4,29.83,NNW,330,2.0,2.0,70,0.00,OVC,,0.00,WeatherDisplay:10.37,2013-03-28 19:20:00,
2013-03-28 20:25:00,36.7,27.9,29.84,NW,315,1.3,2.2,70,0.00,,,0.00,WUHU21636XXSP,2013-03-28 19:25:00,
2013-03-28 20:30:00,34.9,26.1,29.83,NW,313,1.0,2.0,70,0.00,FEW,,0.00,WeatherDisplay:10.37,2013-03-28 19:30:00,
2013-03-28 20:35:00,36.5,28.1,29.84,WNW,293,0.9,1.3,71,0.00,,,0.00,WUHU21636XXSP,2013-03-28 19:35:00,
2013-03-28 20:40:00,34.5,26.1,29.83,WNW,290,1.0,1.0,71,0.00,FEW,,0.00,WeatherDisplay:10.37,2013-03-28 19:40:00,
2013-03-28 20:45:00,36.1,27.7,29.84,WNW,293,2.2,2.2,71,0.00,,,0.00,WUHU21636XXSP,2013-03-28 19:45:00,
2013-03-28 20:50:00,34.2,26.1,29.83,WNW,286,0.0,2.0,72,0.00,FEW,,0.00,WeatherDisplay:10.37,2013-03-28 19:50:00,
2013-03-28 20:55:00,36.0,27.9,29.85,West,270,0.0,2.2,72,0.00,,,0.00,WUHU21636XXSP,2013-03-28 19:55:00,
2013-03-28 21:00:00,34.0,25.9,29.84,West,277,0.0,0.0,72,0.00,CLR,,0.00,WeatherDisplay:10.37,2013-03-28 20:00:00,
2013-03-28 21:05:00,35.4,27.3,29.85,WNW,293,1.1,1.1,72,0.00,,,0.00,WUHU21636XXSP,2013-03-28 20:05:00,
2013-03-28 21:10:00,33.6,25.9,29.84,West,270,0.0,1.0,73,0.00,CLR,,0.00,WeatherDisplay:10.37,2013-03-28 20:10:00,
2013-03-28 21:15:00,35.2,27.5,29.85,SE,135,0.4,1.1,73,0.00,,,0.00,WUHU21636XXSP,2013-03-28 20:15:00,
2013-03-28 21:20:00,33.4,25.7,29.84,ESE,123,2.0,2.0,73,0.00,CLR,,0.00,WeatherDisplay:10.37,2013-03-28 20:20:00,
2013-03-28 21:25:00,35.2,27.5,29.85,West,270,0.0,2.0,73,0.00,,,0.00,WUHU21636XXSP,2013-03-28 20:25:00,
2013-03-28 21:30:00,33.3,25.9,29.83,West,280,1.0,2.0,74,0.00,SCT,,0.00,WeatherDisplay:10.37,2013-03-28 20:30:00,
2013-03-28 21:35:00,34.9,27.5,29.84,NW,315,0.0,1.1,74,0.00,,,0.00,WUHU21636XXSP,2013-03-28 20:35:00,
2013-03-28 21:40:00,33.1,25.7,29.83,NW,315,0.0,1.0,74,0.00,SCT,,0.00,WeatherDisplay:10.37,2013-03-28 20:40:00,
2013-03-28 21:45:00,34.9,27.8,29.84,ESE,113,0.0,0.0,75,0.00,,,0.00,WUHU21636XXSP,2013-03-28 20:45:00,
2013-03-28 21:50:00,32.9,25.8,29.83,North,6,0.0,0.0,75,0.00,SCT,,0.00,WeatherDisplay:10.37,2013-03-28 20:50:00,
2013-03-28 21:55:00,34.7,27.6,29.83,NW,315,0.4,0.4,75,0.00,,,0.00,WUHU21636XXSP,2013-03-28 20:55:00,
2013-03-28 22:00:00,32.9,25.8,29.82,West,268,2.0,2.0,75,0.00,BKN,,0.00,WeatherDisplay:10.37,2013-03-28 21:00:00,
2013-03-28 22:05:00,34.7,27.9,29.83,ESE,113,0.0,2.2,76,0.00,,,0.00,WUHU21636XXSP,2013-03-28 21:05:00,
2013-03-28 22:10:00,32.9,26.2,29.82,WNW,292,0.0,2.0,76,0.00,BKN,,0.00,WeatherDisplay:10.37,2013-03-28 21:10:00,
2013-03-28 22:15:00,34.7,27.9,29.83,ESE,113,0.0,0.0,76,0.00,,,0.00,WUHU21636XXSP,2013-03-28 21:15:00,
2013-03-28 22:20:00,32.9,26.2,29.81,ESE,112,0.0,0.0,76,0.00,BKN,,0.00,WeatherDisplay:10.37,2013-03-28 21:20:00,
2013-03-28 22:25:00,34.7,27.9,29.82,WNW,293,0.0,0.0,76,0.00,,,0.00,WUHU21636XXSP,2013-03-28 21:25:00,
2013-03-28 22:30:00,33.1,26.7,29.81,WSW,245,1.0,1.0,77,0.00,OVC,,0.00,WeatherDisplay:10.37,2013-03-28 21:30:00,
2013-03-28 22:35:00,34.9,28.5,29.82,WNW,293,0.0,0.9,77,0.00,,,0.00,WUHU21636XXSP,2013-03-28 21:35:00,
2013-03-28 22:40:00,34.9,28.5,29.82,SSE,158,0.0,0.9,77,0.00,,,0.00,WUHU21636XXSP,2013-03-28 21:40:00,
2013-03-28 22:41:00,33.1,26.7,29.81,SSW,195,0.0,1.0,77,0.00,OVC,,0.00,WeatherDisplay:10.37,2013-03-28 21:41:00,
2013-03-28 22:45:00,34.9,28.5,29.82,WNW,293,0.0,0.0,77,0.00,,,0.00,WUHU21636XXSP,2013-03-28 21:45:00,
2013-03-28 22:50:00,34.9,28.5,29.82,WNW,293,0.0,0.0,77,0.00,,,0.00,WUHU21636XXSP,2013-03-28 21:50:00,
2013-03-28 22:51:00,33.1,26.7,29.81,WSW,250,0.0,0.0,77,0.00,OVC,,0.00,WeatherDisplay:10.37,2013-03-28 21:51:00,
2013-03-28 22:55:00,34.9,28.5,29.82,SE,135,0.0,0.0,77,0.00,,,0.00,WUHU21636XXSP,2013-03-28 21:55:00,
2013-03-28 23:00:00,33.1,26.7,29.81,SW,221,1.0,1.0,77,0.00,OVC,,0.00,WeatherDisplay:10.37,2013-03-28 22:00:00,
2013-03-28 23:05:00,35.1,28.6,29.81,ESE,113,2.0,2.0,77,0.00,,,0.00,WUHU21636XXSP,2013-03-28 22:05:00,
2013-03-28 23:10:00,35.1,28.6,29.81,NW,315,1.1,2.0,77,0.00,,,0.00,WUHU21636XXSP,2013-03-28 22:10:00,
2013-03-28 23:15:00,35.1,28.6,29.81,WNW,293,0.0,2.0,77,0.00,,,0.00,WUHU21636XXSP,2013-03-28 22:15:00,
2013-03-28 23:20:00,33.3,26.8,29.80,NW,304,1.0,2.0,77,0.00,OVC,,0.00,WeatherDisplay:10.37,2013-03-28 22:20:00,
2013-03-28 23:25:00,35.2,29.1,29.81,West,270,0.0,1.6,78,0.00,,,0.00,WUHU21636XXSP,2013-03-28 22:25:00,
2013-03-28 23:30:00,33.4,27.3,29.80,WNW,283,1.0,2.0,78,0.00,OVC,,0.00,WeatherDisplay:10.37,2013-03-28 22:30:00,
2013-03-28 23:35:00,35.2,29.1,29.80,NNW,338,0.0,1.6,78,0.00,,,0.00,WUHU21636XXSP,2013-03-28 22:35:00,
2013-03-28 23:40:00,33.4,27.3,29.79,NW,315,0.0,2.0,78,0.00,OVC,,0.00,WeatherDisplay:10.37,2013-03-28 22:40:00,
2013-03-28 23:45:00,35.2,29.1,29.80,NW,315,0.7,0.7,78,0.00,,,0.00,WUHU21636XXSP,2013-03-28 22:45:00,
2013-03-28 23:50:00,33.4,27.3,29.79,NNW,330,1.0,1.0,78,0.00,OVC,,0.00,WeatherDisplay:10.37,2013-03-28 22:50:00,
2013-03-28 23:55:00,35.2,29.1,29.80,WNW,293,1.6,1.6,78,0.00,,,0.00,WUHU21636XXSP,2013-03-28 22:55:00,